createdAt,value
2022-08-18T00:02:01.091Z,66.00
2022-08-18T00:04:35.701Z,66.00
2022-08-18T00:07:04.302Z,66.00
2022-08-18T00:09:32.659Z,66.10
2022-08-18T00:12:02.135Z,66.10
2022-08-18T00:14:29.146Z,66.10
2022-08-18T00:16:55.832Z,66.00
2022-08-18T00:19:46.826Z,66.00
2022-08-18T00:22:14.839Z,65.90
2022-08-18T00:24:48.056Z,65.80
2022-08-18T00:27:19.676Z,65.70
2022-08-18T00:29:48.847Z,65.70
2022-08-18T00:32:18.353Z,65.70
2022-08-18T00:34:45.367Z,65.80
2022-08-18T00:37:12.296Z,65.80
2022-08-18T00:39:40.666Z,65.90
2022-08-18T00:42:27.711Z,66.00
2022-08-18T00:45:06.178Z,66.00
2022-08-18T00:47:42.497Z,66.00
2022-08-18T00:50:15.051Z,66.00
2022-08-18T00:52:45.915Z,66.00
2022-08-18T00:55:12.655Z,66.00
2022-08-18T00:57:40.391Z,65.90
2022-08-18T01:00:16.756Z,65.90
2022-08-18T01:02:47.772Z,65.80
2022-08-18T01:05:43.785Z,65.90
2022-08-18T01:08:14.745Z,65.80
2022-08-18T01:10:43.930Z,65.70
2022-08-18T01:13:10.781Z,65.70
2022-08-18T01:15:37.984Z,65.70
2022-08-18T01:18:28.833Z,65.60
2022-08-18T01:21:26.381Z,65.70
2022-08-18T01:23:54.571Z,65.60
2022-08-18T01:26:24.335Z,65.60
2022-08-18T01:28:52.267Z,65.60
2022-08-18T01:31:38.273Z,65.70
2022-08-18T01:34:07.206Z,65.70
2022-08-18T01:36:37.264Z,65.90
2022-08-18T01:39:07.933Z,65.90
2022-08-18T01:41:34.710Z,65.90
2022-08-18T01:44:02.978Z,65.90
2022-08-18T01:46:33.680Z,65.90
2022-08-18T01:49:01.555Z,66.00
2022-08-18T01:51:38.889Z,65.90
2022-08-18T01:54:10.355Z,66.00
2022-08-18T01:56:37.085Z,65.90
2022-08-18T01:59:04.723Z,66.10
2022-08-18T02:01:33.035Z,66.10
2022-08-18T02:04:33.223Z,66.10
2022-08-18T02:06:53.931Z,66.00
2022-08-18T02:09:23.751Z,65.90
2022-08-18T02:11:51.309Z,65.80
2022-08-18T02:14:24.987Z,65.90
2022-08-18T02:16:55.608Z,66.00
2022-08-18T02:19:28.211Z,66.00
2022-08-18T02:21:54.838Z,66.00
2022-08-18T02:24:21.678Z,65.90
2022-08-18T02:26:48.312Z,65.90
2022-08-18T02:29:14.912Z,66.40
2022-08-18T02:31:41.718Z,65.80
2022-08-18T02:34:08.459Z,65.70
2022-08-18T02:36:35.061Z,65.70
2022-08-18T02:39:01.815Z,65.70
2022-08-18T02:41:29.803Z,65.70
2022-08-18T02:43:58.344Z,65.60
2022-08-18T02:46:29.792Z,65.60
2022-08-18T02:48:57.145Z,66.30
2022-08-18T02:51:25.982Z,65.50
2022-08-18T02:53:54.137Z,65.50
2022-08-18T02:56:32.829Z,65.60
2022-08-18T02:59:10.245Z,65.90
2022-08-18T03:01:39.949Z,66.00
2022-08-18T03:04:08.970Z,66.10
2022-08-18T03:06:36.886Z,66.20
2022-08-18T03:09:05.666Z,66.40
2022-08-18T03:11:32.346Z,66.50
2022-08-18T03:14:00.333Z,66.60
2022-08-18T03:16:27.429Z,66.70
2022-08-18T03:18:54.147Z,66.70
2022-08-18T03:21:24.396Z,66.70
2022-08-18T03:24:00.506Z,66.70
2022-08-18T03:26:29.941Z,66.60
2022-08-18T03:28:57.739Z,66.60
2022-08-18T03:31:25.286Z,66.60
2022-08-18T03:33:59.192Z,66.60
2022-08-18T03:36:28.985Z,66.70
2022-08-18T03:38:55.764Z,66.80
2022-08-18T03:41:43.980Z,66.80
2022-08-18T03:44:14.884Z,66.70
2022-08-18T03:46:43.507Z,66.70
2022-08-18T03:49:10.686Z,66.80
2022-08-18T03:51:37.773Z,66.90
2022-08-18T03:54:06.095Z,66.90
2022-08-18T03:56:36.439Z,66.90
2022-08-18T03:59:07.840Z,66.80
2022-08-18T04:01:39.352Z,66.70
2022-08-18T04:04:09.319Z,66.60
2022-08-18T04:06:40.848Z,66.50
2022-08-18T04:09:10.737Z,66.40
2022-08-18T04:11:38.757Z,66.30
2022-08-18T04:14:06.304Z,66.20
2022-08-18T04:16:34.880Z,66.30
2022-08-18T04:19:03.459Z,66.30
2022-08-18T04:21:32.906Z,66.20
2022-08-18T04:24:07.378Z,66.30
2022-08-18T04:26:37.468Z,66.40
2022-08-18T04:29:06.163Z,66.50
2022-08-18T04:31:32.943Z,66.60
2022-08-18T04:34:01.500Z,66.60
2022-08-18T04:36:29.922Z,66.90
2022-08-18T04:38:58.568Z,67.00
2022-08-18T04:41:27.484Z,66.90
2022-08-18T04:43:58.194Z,66.90
2022-08-18T04:46:25.916Z,66.90
2022-08-18T04:48:58.813Z,67.00
2022-08-18T04:52:30.858Z,66.90
2022-08-18T04:54:15.931Z,66.90
2022-08-18T04:56:42.654Z,67.00
2022-08-18T04:59:12.488Z,67.00
2022-08-18T05:01:48.061Z,67.00
2022-08-18T05:04:17.093Z,67.00
2022-08-18T05:06:45.103Z,67.00
2022-08-18T05:09:16.584Z,67.00
2022-08-18T05:11:50.604Z,67.10
2022-08-18T05:14:18.278Z,67.00
2022-08-18T05:16:48.920Z,67.00
2022-08-18T05:19:23.302Z,67.00
2022-08-18T05:22:00.044Z,67.00
2022-08-18T05:24:33.712Z,67.20
2022-08-18T05:27:05.188Z,67.30
2022-08-18T05:29:36.618Z,67.30
2022-08-18T05:32:08.696Z,67.40
2022-08-18T05:34:36.073Z,67.30
2022-08-18T05:37:08.040Z,67.60
2022-08-18T05:39:52.188Z,67.70
2022-08-18T05:42:21.252Z,67.70
2022-08-18T05:44:51.231Z,67.70
2022-08-18T05:47:29.857Z,67.80
2022-08-18T05:50:02.453Z,67.90
2022-08-18T05:52:35.288Z,67.90
2022-08-18T05:55:25.368Z,68.00
2022-08-18T05:58:08.041Z,68.10
2022-08-18T06:00:37.233Z,68.10
2022-08-18T06:03:21.719Z,68.20
2022-08-18T06:06:01.420Z,68.30
2022-08-18T06:08:37.590Z,68.20
2022-08-18T06:11:04.440Z,68.20
2022-08-18T06:13:38.068Z,68.10
2022-08-18T06:16:12.231Z,68.10
2022-08-18T06:18:59.484Z,68.20
2022-08-18T06:21:44.643Z,68.20
2022-08-18T06:24:24.503Z,68.20
2022-08-18T06:27:01.179Z,68.30
2022-08-18T06:29:47.255Z,68.30
2022-08-18T06:32:38.094Z,68.20
2022-08-18T06:35:34.217Z,68.30
2022-08-18T06:38:19.200Z,68.20
2022-08-18T06:40:48.576Z,68.20
2022-08-18T06:43:17.300Z,68.20
2022-08-18T06:45:50.369Z,68.20
2022-08-18T06:48:45.733Z,68.30
2022-08-18T06:51:17.724Z,68.20
2022-08-18T06:53:50.470Z,68.30
2022-08-18T06:56:26.529Z,68.10
2022-08-18T06:58:55.252Z,68.20
2022-08-18T07:01:24.855Z,68.30
2022-08-18T07:03:56.638Z,68.90
2022-08-18T07:06:23.200Z,68.60
2022-08-18T07:08:52.055Z,68.20
2022-08-18T07:11:27.910Z,68.20
2022-08-18T07:14:17.369Z,68.10
2022-08-18T07:16:58.273Z,68.20
2022-08-18T07:19:30.043Z,68.30
2022-08-18T07:22:10.763Z,68.10
2022-08-18T07:24:42.058Z,68.10
2022-08-18T07:27:17.328Z,68.00
2022-08-18T07:30:03.702Z,67.90
2022-08-18T07:32:45.316Z,67.90
2022-08-18T07:35:24.105Z,68.00
2022-08-18T07:38:38.700Z,68.10
2022-08-18T07:40:58.926Z,68.10
2022-08-18T07:43:36.035Z,67.90
2022-08-18T07:46:35.244Z,67.80
2022-08-18T07:49:05.443Z,67.80
2022-08-18T07:52:07.124Z,67.60
2022-08-18T07:55:05.772Z,67.50
2022-08-18T07:58:06.202Z,67.20
2022-08-18T08:01:04.817Z,67.20
2022-08-18T08:03:47.104Z,67.20
2022-08-18T08:06:41.152Z,67.00
2022-08-18T08:09:29.961Z,66.90
2022-08-18T08:11:58.458Z,66.60
2022-08-18T08:14:56.065Z,66.50
2022-08-18T08:17:23.743Z,66.50
2022-08-18T08:20:01.921Z,66.40
2022-08-18T08:22:28.848Z,66.30
2022-08-18T08:25:04.338Z,66.40
2022-08-18T08:27:36.757Z,66.30
2022-08-18T08:30:16.318Z,66.10
2022-08-18T08:32:45.761Z,66.30
2022-08-18T08:35:49.100Z,66.10
2022-08-18T08:38:39.954Z,66.00
2022-08-18T08:41:13.102Z,65.70
2022-08-18T08:43:45.225Z,65.30
2022-08-18T08:46:21.346Z,65.50
2022-08-18T08:49:03.133Z,65.20
2022-08-18T08:51:44.568Z,65.20
2022-08-18T08:54:29.436Z,64.80
2022-08-18T08:56:59.011Z,64.20
2022-08-18T08:59:25.947Z,64.10
2022-08-18T09:02:46.211Z,63.80
2022-08-18T09:05:29.672Z,63.40
2022-08-18T09:08:14.903Z,62.80
2022-08-18T09:10:53.821Z,62.60
2022-08-18T09:13:29.135Z,61.70
2022-08-18T09:16:12.263Z,61.40
2022-08-18T09:18:49.006Z,60.60
2022-08-18T09:21:18.914Z,59.80
2022-08-18T09:23:47.970Z,59.20
2022-08-18T09:26:41.820Z,59.50
2022-08-18T09:29:37.189Z,57.90
2022-08-18T09:32:19.856Z,57.20
2022-08-18T09:35:24.234Z,57.80
2022-08-18T09:38:20.614Z,57.70
2022-08-18T09:41:19.456Z,57.60
2022-08-18T09:44:21.640Z,57.00
2022-08-18T09:46:55.271Z,56.50
2022-08-18T09:49:22.611Z,56.50
2022-08-18T09:51:56.859Z,56.10
2022-08-18T09:54:29.484Z,55.20
2022-08-18T09:56:58.090Z,55.00
2022-08-18T09:59:50.353Z,54.60
2022-08-18T10:02:29.266Z,53.80
2022-08-18T10:05:21.187Z,53.90
2022-08-18T10:08:07.124Z,54.10
2022-08-18T10:11:00.826Z,54.40
2022-08-18T10:14:06.606Z,54.50
2022-08-18T10:20:05.589Z,54.90
2022-08-18T10:22:48.065Z,55.00
2022-08-18T10:25:41.024Z,54.90
2022-08-18T10:31:06.547Z,55.20
2022-08-18T10:34:00.590Z,55.30
2022-08-18T10:36:37.374Z,55.10
2022-08-18T10:39:11.056Z,55.20
2022-08-18T10:41:46.122Z,54.90
2022-08-18T10:44:29.351Z,53.60
2022-08-18T10:47:00.354Z,52.10
2022-08-18T10:49:32.259Z,51.50
2022-08-18T10:52:20.791Z,51.30
2022-08-18T10:55:03.062Z,51.60
2022-08-18T10:57:45.872Z,51.70
2022-08-18T11:00:17.454Z,52.10
2022-08-18T11:03:40.054Z,52.70
2022-08-18T11:06:04.239Z,51.70
2022-08-18T11:08:36.982Z,52.00
2022-08-18T11:11:34.785Z,52.20
2022-08-18T11:14:11.946Z,52.30
2022-08-18T11:17:03.433Z,52.60
2022-08-18T11:19:42.212Z,52.90
2022-08-18T11:25:29.929Z,52.90
2022-08-18T11:27:57.554Z,53.20
2022-08-18T11:30:36.899Z,53.30
2022-08-18T11:33:05.658Z,53.30
2022-08-18T11:36:08.258Z,52.90
2022-08-18T11:38:39.384Z,51.70
2022-08-18T11:41:24.610Z,50.90
2022-08-18T11:44:18.893Z,50.30
2022-08-18T11:46:52.097Z,50.30
2022-08-18T11:49:30.018Z,50.30
2022-08-18T11:52:05.687Z,50.00
2022-08-18T11:57:54.344Z,48.80
2022-08-18T12:00:44.479Z,47.60
2022-08-18T12:03:20.086Z,47.40
2022-08-18T12:05:56.491Z,47.70
2022-08-18T12:11:32.127Z,46.80
2022-08-18T12:14:30.093Z,47.20
2022-08-18T12:16:57.377Z,47.30
2022-08-18T12:19:31.033Z,47.50
2022-08-18T12:22:00.407Z,47.40
2022-08-18T12:24:36.938Z,47.60
2022-08-18T12:29:55.764Z,48.20
2022-08-18T12:32:47.122Z,48.50
2022-08-18T12:35:14.005Z,48.70
2022-08-18T12:38:11.169Z,48.70
2022-08-18T12:40:32.479Z,48.60
2022-08-18T12:42:59.690Z,48.70
2022-08-18T12:45:27.873Z,48.60
2022-08-18T12:47:55.637Z,48.90
2022-08-18T12:50:31.761Z,49.00
2022-08-18T12:53:02.528Z,48.50
2022-08-18T12:55:34.749Z,48.40
2022-08-18T12:58:01.786Z,48.10
2022-08-18T13:03:15.096Z,48.40
2022-08-18T13:05:42.722Z,47.50
2022-08-18T13:08:30.108Z,47.70
2022-08-18T13:11:14.983Z,47.80
2022-08-18T13:13:48.487Z,47.90
2022-08-18T13:16:38.593Z,47.70
2022-08-18T13:19:06.217Z,46.40
2022-08-18T13:21:41.058Z,45.80
2022-08-18T13:24:09.453Z,45.00
2022-08-18T13:26:41.857Z,44.30
2022-08-18T13:29:10.530Z,44.70
2022-08-18T13:31:37.954Z,44.40
2022-08-18T13:34:07.566Z,44.10
2022-08-18T13:36:46.045Z,44.10
2022-08-18T13:39:18.451Z,43.60
2022-08-18T13:41:47.971Z,43.50
2022-08-18T13:44:18.787Z,43.40
2022-08-18T13:46:48.005Z,43.30
2022-08-18T13:49:23.787Z,43.10
2022-08-18T13:52:00.440Z,43.10
2022-08-18T13:54:35.343Z,43.20
2022-08-18T13:57:03.332Z,43.10
2022-08-18T13:59:33.169Z,42.80
2022-08-18T14:02:02.958Z,42.80
2022-08-18T14:04:29.735Z,43.50
2022-08-18T14:06:59.703Z,42.50
2022-08-18T14:09:36.333Z,42.10
2022-08-18T14:12:23.147Z,42.00
2022-08-18T14:14:52.895Z,42.10
2022-08-18T14:17:22.253Z,42.00
2022-08-18T14:20:10.721Z,42.10
2022-08-18T14:23:01.179Z,42.20
2022-08-18T14:25:46.867Z,42.30
2022-08-18T14:28:13.792Z,42.70
2022-08-18T14:30:50.841Z,43.10
2022-08-18T14:33:34.057Z,43.20
2022-08-18T14:36:12.833Z,43.90
2022-08-18T14:38:39.726Z,43.30
2022-08-18T14:41:10.611Z,43.20
2022-08-18T14:44:00.453Z,43.30
2022-08-18T14:46:30.285Z,44.00
2022-08-18T14:48:59.624Z,44.10
2022-08-18T14:51:30.966Z,42.80
2022-08-18T14:54:01.080Z,42.00
2022-08-18T14:56:29.366Z,41.20
2022-08-18T14:58:56.324Z,40.30
2022-08-18T15:01:24.394Z,39.60
2022-08-18T15:03:51.138Z,39.30
2022-08-18T15:06:22.773Z,39.10
2022-08-18T15:08:54.523Z,39.10
2022-08-18T15:11:24.655Z,38.70
2022-08-18T15:13:51.560Z,38.60
2022-08-18T15:16:22.417Z,38.80
2022-08-18T15:18:58.160Z,39.40
2022-08-18T15:21:43.213Z,39.30
2022-08-18T15:24:28.834Z,38.60
2022-08-18T15:27:03.189Z,38.40
2022-08-18T15:29:33.479Z,37.30
2022-08-18T15:32:05.228Z,36.90
2022-08-18T15:34:32.956Z,36.90
2022-08-18T15:37:14.087Z,36.10
2022-08-18T15:39:41.304Z,35.60
2022-08-18T15:42:10.921Z,34.90
2022-08-18T15:44:38.166Z,34.40
2022-08-18T15:47:05.798Z,34.10
2022-08-18T15:49:36.122Z,33.20
2022-08-18T15:52:03.207Z,33.30
2022-08-18T15:54:29.943Z,33.00
2022-08-18T15:56:58.753Z,32.90
2022-08-18T15:59:34.135Z,32.50
2022-08-18T16:02:07.307Z,32.20
2022-08-18T16:04:40.967Z,32.10
2022-08-18T16:07:07.798Z,31.70
2022-08-18T16:09:36.778Z,31.30
2022-08-18T16:12:03.757Z,31.40
2022-08-18T16:14:31.472Z,31.80
2022-08-18T16:16:58.065Z,32.00
2022-08-18T16:19:25.693Z,32.10
2022-08-18T16:21:57.132Z,32.10
2022-08-18T16:24:23.786Z,32.30
2022-08-18T16:26:51.879Z,32.90
2022-08-18T16:29:19.410Z,33.40
2022-08-18T16:31:46.487Z,33.80
2022-08-18T16:34:13.465Z,34.40
2022-08-18T16:36:40.105Z,34.80
2022-08-18T16:39:07.168Z,35.60
2022-08-18T16:41:34.095Z,36.40
2022-08-18T16:44:01.410Z,37.00
2022-08-18T16:46:28.933Z,37.60
2022-08-18T16:48:57.635Z,38.40
2022-08-18T16:51:27.258Z,38.50
2022-08-18T16:53:54.511Z,38.20
2022-08-18T16:56:24.202Z,38.30
2022-08-18T16:59:09.751Z,38.40
2022-08-18T17:01:56.407Z,38.60
2022-08-18T17:04:26.044Z,39.00
2022-08-18T17:06:52.700Z,39.30
2022-08-18T17:09:20.225Z,39.80
2022-08-18T17:11:51.319Z,40.40
2022-08-18T17:14:21.544Z,40.80
2022-08-18T17:16:51.027Z,41.40
2022-08-18T17:19:17.674Z,41.30
2022-08-18T17:21:44.437Z,40.70
2022-08-18T17:24:11.489Z,40.20
2022-08-18T17:26:52.634Z,40.00
2022-08-18T17:29:27.993Z,39.90
2022-08-18T17:32:02.112Z,39.70
2022-08-18T17:34:40.344Z,39.80
2022-08-18T17:37:10.054Z,39.90
2022-08-18T17:39:41.743Z,39.90
2022-08-18T17:42:27.665Z,40.10
2022-08-18T17:45:10.446Z,40.40
2022-08-18T17:47:46.566Z,40.70
2022-08-18T17:50:48.139Z,40.90
2022-08-18T17:53:16.457Z,41.30
2022-08-18T17:55:49.091Z,41.40
2022-08-18T17:58:29.552Z,41.70
2022-08-18T18:00:56.143Z,42.00
2022-08-18T18:03:23.050Z,42.10
2022-08-18T18:05:53.066Z,42.50
2022-08-18T18:08:20.291Z,42.80
2022-08-18T18:11:04.888Z,43.10
2022-08-18T18:13:33.270Z,43.50
2022-08-18T18:16:18.346Z,43.90
2022-08-18T18:18:46.107Z,44.40
2022-08-18T18:21:15.870Z,44.70
2022-08-18T18:23:51.528Z,45.70
2022-08-18T18:26:28.304Z,45.50
2022-08-18T18:29:14.905Z,46.70
2022-08-18T18:31:58.230Z,46.40
2022-08-18T18:34:28.326Z,46.60
2022-08-18T18:36:57.446Z,47.00
2022-08-18T18:39:34.182Z,47.20
2022-08-18T18:42:26.607Z,47.60
2022-08-18T18:44:55.988Z,48.10
2022-08-18T18:47:47.605Z,48.40
2022-08-18T18:50:52.808Z,49.00
2022-08-18T18:54:12.863Z,49.40
2022-08-18T18:56:54.496Z,49.60
2022-08-18T18:59:41.040Z,49.70
2022-08-18T19:02:34.836Z,50.30
2022-08-18T19:05:19.240Z,50.40
2022-08-18T19:08:04.776Z,50.80
2022-08-18T19:10:39.826Z,51.20
2022-08-18T19:13:32.371Z,51.30
2022-08-18T19:16:09.601Z,51.70
2022-08-18T19:19:35.120Z,51.90
2022-08-18T19:22:05.846Z,52.30
2022-08-18T19:24:23.855Z,52.40
2022-08-18T19:27:01.307Z,52.60
2022-08-18T19:29:36.295Z,52.80
2022-08-18T19:32:07.576Z,52.90
2022-08-18T19:34:51.552Z,53.10
2022-08-18T19:37:46.059Z,53.30
2022-08-18T19:40:20.415Z,53.60
2022-08-18T19:43:11.487Z,53.70
2022-08-18T19:45:56.318Z,53.90
2022-08-18T19:48:34.735Z,54.00
2022-08-18T19:51:19.002Z,54.20
2022-08-18T19:54:00.522Z,54.50
2022-08-18T19:56:47.211Z,54.40
2022-08-18T19:59:34.050Z,54.50
2022-08-18T20:02:20.744Z,54.50
2022-08-18T20:04:53.240Z,55.10
2022-08-18T20:07:31.744Z,55.20
2022-08-18T20:10:04.471Z,55.30
2022-08-18T20:12:55.556Z,55.40
2022-08-18T20:15:25.471Z,55.60
2022-08-18T20:18:01.889Z,55.60
2022-08-18T20:20:32.631Z,55.80
2022-08-18T20:23:00.837Z,55.80
2022-08-18T20:25:41.360Z,56.00
2022-08-18T20:28:10.978Z,56.40
2022-08-18T20:30:58.429Z,56.60
2022-08-18T20:33:25.998Z,56.60
2022-08-18T20:36:19.923Z,56.70
2022-08-18T20:38:50.127Z,57.00
2022-08-18T20:41:27.762Z,57.10
2022-08-18T20:44:13.771Z,57.20
2022-08-18T20:47:04.831Z,57.20
2022-08-18T20:49:46.574Z,57.30
2022-08-18T20:52:35.933Z,57.20
2022-08-18T20:55:32.362Z,57.30
2022-08-18T20:58:15.388Z,57.60
2022-08-18T21:00:47.027Z,57.80
2022-08-18T21:03:16.599Z,57.70
2022-08-18T21:05:45.178Z,57.60
2022-08-18T21:08:16.300Z,57.80
2022-08-18T21:11:01.189Z,57.90
2022-08-18T21:13:27.746Z,57.90
2022-08-18T21:15:55.992Z,57.80
2022-08-18T21:18:24.031Z,57.80
2022-08-18T21:20:53.405Z,57.90
2022-08-18T21:23:34.435Z,58.10
2022-08-18T21:26:11.258Z,58.40
2022-08-18T21:28:40.695Z,58.40
2022-08-18T21:31:42.065Z,58.50
2022-08-18T21:34:28.482Z,58.60
2022-08-18T21:36:57.957Z,58.40
2022-08-18T21:39:26.011Z,58.40
2022-08-18T21:41:55.374Z,58.40
2022-08-18T21:44:44.495Z,58.60
2022-08-18T21:47:20.528Z,58.70
2022-08-18T21:50:10.459Z,58.90
2022-08-18T21:52:39.940Z,58.80
2022-08-18T21:55:19.018Z,59.00
2022-08-18T21:57:50.876Z,59.10
2022-08-18T22:00:22.976Z,59.10
2022-08-18T22:02:52.048Z,58.90
2022-08-18T22:05:58.395Z,59.10
2022-08-18T22:08:23.411Z,59.00
2022-08-18T22:12:01.828Z,59.00
2022-08-18T22:14:55.141Z,59.10
2022-08-18T22:17:42.800Z,58.80
2022-08-18T22:20:41.020Z,58.90
2022-08-18T22:23:32.431Z,59.00
2022-08-18T22:26:17.512Z,59.10
2022-08-18T22:28:58.513Z,59.10
2022-08-18T22:31:28.164Z,59.10
2022-08-18T22:33:56.117Z,59.10
2022-08-18T22:36:28.082Z,59.10
2022-08-18T22:38:54.753Z,59.20
2022-08-18T22:41:22.183Z,59.10
2022-08-18T22:43:49.676Z,59.00
2022-08-18T22:46:24.335Z,59.00
2022-08-18T22:48:52.772Z,59.10
2022-08-18T22:51:22.428Z,59.30
2022-08-18T22:53:49.153Z,59.30
2022-08-18T22:56:16.055Z,59.30
2022-08-18T22:58:49.382Z,59.20
2022-08-18T23:01:17.605Z,59.30
2022-08-18T23:03:44.382Z,59.40
2022-08-18T23:06:11.308Z,59.60
2022-08-18T23:08:54.940Z,59.70
2022-08-18T23:11:24.303Z,59.70
2022-08-18T23:13:51.240Z,59.70
2022-08-18T23:16:31.137Z,59.90
2022-08-18T23:19:01.834Z,59.80
2022-08-18T23:21:34.772Z,59.80
2022-08-18T23:24:04.317Z,59.80
2022-08-18T23:26:31.028Z,59.80
2022-08-18T23:28:57.704Z,59.80
2022-08-18T23:31:24.341Z,59.70
2022-08-18T23:33:51.360Z,59.70
2022-08-18T23:36:17.968Z,59.70
2022-08-18T23:38:44.787Z,59.80
2022-08-18T23:41:13.372Z,59.80
2022-08-18T23:43:41.815Z,59.80
2022-08-18T23:46:17.943Z,59.70
2022-08-18T23:48:49.806Z,59.80
2022-08-18T23:51:31.294Z,59.70
2022-08-18T23:54:00.760Z,59.70
2022-08-18T23:56:28.950Z,59.70
2022-08-18T23:58:57.263Z,59.80
